Hickory Regional Airport
KHKY : now visible

Airfield :











YOU CAN JOIN US ON...

 
LOGIN :

Register | Disclaimer

   EN    FR    IT 

 









Legend :    VFR   Marginal VFR   IFR   Intensive IFR   Very Intensive IFR
Visi :
Ceiling :
>= 8 km
>= 3000ft
5 to 8 km
1000 to 3000 ft
1500m to 5 km
500 to 1000 ft
800 to 1500m
200 to 500 ft
< 800m
< 200 ft
Symbols :   Thunderstorms  Fog  Heavy snow  Heavy precipitations  Wind > 20 kt






- Airport Elevation : 1190 ft
- IATA code : HKY


KHKY - Hickory Regional

CURRENT METAR :
  • 130353Z AUTO 34003KT 10SM CLR 18/01 A2994 RMK AO2 SLP118 T01780011

EXPIRED METARs :
  • 130253Z AUTO 32006KT 10SM CLR 19/M01 A2992 RMK AO2 SLP111 T01941011 53036
  • 130153Z AUTO 30003KT 10SM CLR 20/M02 A2988 RMK AO2 SLP099 T02001022

TAF KHKY
Valid from the 13 at 00:00 until the 14 at 00:00 UTC


122333Z 1300/1324 30008KT P6SM SKC
FM130400 32004KT P6SM SKC
FM131400 33006KT P6SM FEW150 BKN250
KZTL FIR / North America



MET'MAP, your aeronautical weather chart ! - Copyright ORBIFLY December 2007 - Disclaimer

ORBIFLY MET'MAP TEAM :

Programming & Development : Alexandra Zaïnal
Concept & original design : Baudouin d'Aumeries
Assistance for programming : Marc-Olivier Méhu
Technical & hardware support : Manuel Goepfert

Contact : metmap@orbifly.com




SOURCES & CREDITS :

   NOAA       Earth
Advisory